sensor_id;sensor_type;location;lat;lon;timestamp;P1;durP1;ratioP1;P2;durP2;ratioP2
5147;SDS011;2592;48.140;7.614;2023-02-07T00:00:22;8.53;;;5.17;;
5147;SDS011;2592;48.140;7.614;2023-02-07T00:02:48;10.40;;;5.03;;
5147;SDS011;2592;48.140;7.614;2023-02-07T00:05:15;5.77;;;4.73;;
5147;SDS011;2592;48.140;7.614;2023-02-07T00:07:41;4.80;;;4.37;;
5147;SDS011;2592;48.140;7.614;2023-02-07T00:10:08;7.10;;;5.43;;
5147;SDS011;2592;48.140;7.614;2023-02-07T00:12:34;7.70;;;5.30;;
5147;SDS011;2592;48.140;7.614;2023-02-07T00:15:01;5.50;;;4.80;;
5147;SDS011;2592;48.140;7.614;2023-02-07T00:17:28;7.13;;;4.90;;
5147;SDS011;2592;48.140;7.614;2023-02-07T00:19:55;5.90;;;4.80;;
5147;SDS011;2592;48.140;7.614;2023-02-07T00:22:22;6.37;;;4.57;;
5147;SDS011;2592;48.140;7.614;2023-02-07T00:24:48;4.00;;;3.70;;
5147;SDS011;2592;48.140;7.614;2023-02-07T00:27:14;5.47;;;4.93;;
5147;SDS011;2592;48.140;7.614;2023-02-07T00:29:41;5.20;;;4.20;;
5147;SDS011;2592;48.140;7.614;2023-02-07T00:32:07;6.20;;;4.20;;
5147;SDS011;2592;48.140;7.614;2023-02-07T00:34:35;6.80;;;3.60;;
5147;SDS011;2592;48.140;7.614;2023-02-07T00:37:02;6.10;;;4.43;;
5147;SDS011;2592;48.140;7.614;2023-02-07T00:39:28;4.67;;;3.63;;
5147;SDS011;2592;48.140;7.614;2023-02-07T00:41:55;4.10;;;3.77;;
5147;SDS011;2592;48.140;7.614;2023-02-07T00:44:21;5.77;;;4.47;;
5147;SDS011;2592;48.140;7.614;2023-02-07T00:46:48;4.80;;;4.40;;
5147;SDS011;2592;48.140;7.614;2023-02-07T00:49:14;5.00;;;4.37;;
5147;SDS011;2592;48.140;7.614;2023-02-07T00:51:42;5.03;;;4.30;;
5147;SDS011;2592;48.140;7.614;2023-02-07T00:54:08;5.03;;;4.03;;
5147;SDS011;2592;48.140;7.614;2023-02-07T00:56:35;4.90;;;4.00;;
5147;SDS011;2592;48.140;7.614;2023-02-07T00:59:01;6.10;;;4.57;;
5147;SDS011;2592;48.140;7.614;2023-02-07T01:01:27;5.13;;;4.47;;
5147;SDS011;2592;48.140;7.614;2023-02-07T01:03:54;4.50;;;4.13;;
5147;SDS011;2592;48.140;7.614;2023-02-07T01:06:20;4.47;;;4.03;;
5147;SDS011;2592;48.140;7.614;2023-02-07T01:08:48;5.00;;;4.30;;
5147;SDS011;2592;48.140;7.614;2023-02-07T01:11:15;4.67;;;4.27;;
5147;SDS011;2592;48.140;7.614;2023-02-07T01:13:43;4.33;;;3.70;;
5147;SDS011;2592;48.140;7.614;2023-02-07T01:16:15;4.73;;;4.33;;
5147;SDS011;2592;48.140;7.614;2023-02-07T01:18:41;7.20;;;6.10;;
5147;SDS011;2592;48.140;7.614;2023-02-07T01:21:12;6.03;;;4.10;;
5147;SDS011;2592;48.140;7.614;2023-02-07T01:23:39;5.43;;;4.77;;
5147;SDS011;2592;48.140;7.614;2023-02-07T01:26:07;5.93;;;4.80;;
5147;SDS011;2592;48.140;7.614;2023-02-07T01:28:33;7.50;;;6.27;;
5147;SDS011;2592;48.140;7.614;2023-02-07T01:30:59;7.67;;;6.57;;
5147;SDS011;2592;48.140;7.614;2023-02-07T01:33:26;7.83;;;7.03;;
5147;SDS011;2592;48.140;7.614;2023-02-07T01:35:52;10.97;;;8.33;;
5147;SDS011;2592;48.140;7.614;2023-02-07T01:38:18;10.13;;;8.07;;
5147;SDS011;2592;48.140;7.614;2023-02-07T01:40:45;11.93;;;9.27;;
5147;SDS011;2592;48.140;7.614;2023-02-07T01:43:14;8.77;;;7.30;;
5147;SDS011;2592;48.140;7.614;2023-02-07T01:45:42;9.93;;;8.10;;
5147;SDS011;2592;48.140;7.614;2023-02-07T01:48:10;10.73;;;8.60;;
5147;SDS011;2592;48.140;7.614;2023-02-07T01:50:38;9.50;;;7.53;;
5147;SDS011;2592;48.140;7.614;2023-02-07T01:53:06;7.80;;;6.60;;
5147;SDS011;2592;48.140;7.614;2023-02-07T01:55:35;5.23;;;4.50;;
5147;SDS011;2592;48.140;7.614;2023-02-07T01:58:02;5.50;;;4.20;;
5147;SDS011;2592;48.140;7.614;2023-02-07T02:00:30;7.53;;;6.77;;
5147;SDS011;2592;48.140;7.614;2023-02-07T02:02:57;10.43;;;8.27;;
5147;SDS011;2592;48.140;7.614;2023-02-07T02:05:23;10.37;;;8.50;;
5147;SDS011;2592;48.140;7.614;2023-02-07T02:07:50;9.87;;;8.47;;
5147;SDS011;2592;48.140;7.614;2023-02-07T02:10:17;10.80;;;8.40;;
5147;SDS011;2592;48.140;7.614;2023-02-07T02:12:58;8.20;;;7.40;;
5147;SDS011;2592;48.140;7.614;2023-02-07T02:15:33;7.80;;;6.93;;
5147;SDS011;2592;48.140;7.614;2023-02-07T02:20:51;8.93;;;7.60;;
5147;SDS011;2592;48.140;7.614;2023-02-07T02:23:25;9.03;;;7.00;;
5147;SDS011;2592;48.140;7.614;2023-02-07T02:26:07;7.40;;;6.70;;
5147;SDS011;2592;48.140;7.614;2023-02-07T02:28:49;10.70;;;7.40;;
5147;SDS011;2592;48.140;7.614;2023-02-07T02:34:04;7.80;;;6.70;;
5147;SDS011;2592;48.140;7.614;2023-02-07T02:36:32;8.23;;;6.27;;
5147;SDS011;2592;48.140;7.614;2023-02-07T02:39:02;5.70;;;5.10;;
5147;SDS011;2592;48.140;7.614;2023-02-07T02:41:34;6.73;;;5.97;;
5147;SDS011;2592;48.140;7.614;2023-02-07T02:44:03;5.77;;;5.27;;
5147;SDS011;2592;48.140;7.614;2023-02-07T02:46:32;7.50;;;6.63;;
5147;SDS011;2592;48.140;7.614;2023-02-07T02:49:00;8.67;;;7.37;;
5147;SDS011;2592;48.140;7.614;2023-02-07T02:51:28;8.90;;;7.07;;
5147;SDS011;2592;48.140;7.614;2023-02-07T02:53:57;9.97;;;8.17;;
5147;SDS011;2592;48.140;7.614;2023-02-07T02:56:31;7.83;;;6.37;;
5147;SDS011;2592;48.140;7.614;2023-02-07T02:59:02;8.97;;;7.40;;
5147;SDS011;2592;48.140;7.614;2023-02-07T03:01:33;10.10;;;7.90;;
5147;SDS011;2592;48.140;7.614;2023-02-07T03:04:05;13.20;;;8.83;;
5147;SDS011;2592;48.140;7.614;2023-02-07T03:06:43;12.00;;;8.63;;
5147;SDS011;2592;48.140;7.614;2023-02-07T03:09:16;11.43;;;8.67;;
5147;SDS011;2592;48.140;7.614;2023-02-07T03:11:48;10.73;;;8.90;;
5147;SDS011;2592;48.140;7.614;2023-02-07T03:14:18;11.20;;;10.00;;
5147;SDS011;2592;48.140;7.614;2023-02-07T03:16:47;11.13;;;9.93;;
5147;SDS011;2592;48.140;7.614;2023-02-07T03:19:17;11.50;;;9.27;;
5147;SDS011;2592;48.140;7.614;2023-02-07T03:21:47;10.13;;;9.07;;
5147;SDS011;2592;48.140;7.614;2023-02-07T03:24:17;13.87;;;10.30;;
5147;SDS011;2592;48.140;7.614;2023-02-07T03:26:45;10.77;;;9.33;;
5147;SDS011;2592;48.140;7.614;2023-02-07T03:29:11;9.93;;;7.63;;
5147;SDS011;2592;48.140;7.614;2023-02-07T03:31:38;7.47;;;6.20;;
5147;SDS011;2592;48.140;7.614;2023-02-07T03:34:07;6.60;;;5.57;;
5147;SDS011;2592;48.140;7.614;2023-02-07T03:36:36;7.03;;;6.33;;
5147;SDS011;2592;48.140;7.614;2023-02-07T03:39:05;6.07;;;5.50;;
5147;SDS011;2592;48.140;7.614;2023-02-07T03:41:33;9.53;;;5.33;;
5147;SDS011;2592;48.140;7.614;2023-02-07T03:44:01;7.00;;;6.30;;
5147;SDS011;2592;48.140;7.614;2023-02-07T03:46:31;7.00;;;5.30;;
5147;SDS011;2592;48.140;7.614;2023-02-07T03:48:58;6.60;;;5.80;;
5147;SDS011;2592;48.140;7.614;2023-02-07T03:51:24;4.90;;;4.50;;
5147;SDS011;2592;48.140;7.614;2023-02-07T03:53:50;10.67;;;5.10;;
5147;SDS011;2592;48.140;7.614;2023-02-07T03:56:18;6.67;;;4.90;;
5147;SDS011;2592;48.140;7.614;2023-02-07T03:58:44;5.53;;;4.97;;
5147;SDS011;2592;48.140;7.614;2023-02-07T04:01:11;4.67;;;4.27;;
5147;SDS011;2592;48.140;7.614;2023-02-07T04:03:37;5.40;;;4.83;;
5147;SDS011;2592;48.140;7.614;2023-02-07T04:06:04;5.50;;;5.00;;
5147;SDS011;2592;48.140;7.614;2023-02-07T04:08:30;5.30;;;4.80;;
5147;SDS011;2592;48.140;7.614;2023-02-07T04:10:57;5.47;;;4.90;;
5147;SDS011;2592;48.140;7.614;2023-02-07T04:13:24;6.97;;;6.27;;
5147;SDS011;2592;48.140;7.614;2023-02-07T04:15:51;6.50;;;5.77;;
5147;SDS011;2592;48.140;7.614;2023-02-07T04:18:17;6.50;;;5.43;;
5147;SDS011;2592;48.140;7.614;2023-02-07T04:20:44;7.33;;;6.53;;
5147;SDS011;2592;48.140;7.614;2023-02-07T04:23:10;8.10;;;7.30;;
5147;SDS011;2592;48.140;7.614;2023-02-07T04:25:36;8.53;;;6.40;;
5147;SDS011;2592;48.140;7.614;2023-02-07T04:28:03;8.90;;;7.60;;
5147;SDS011;2592;48.140;7.614;2023-02-07T04:30:30;10.57;;;7.97;;
5147;SDS011;2592;48.140;7.614;2023-02-07T04:32:57;11.57;;;8.80;;
5147;SDS011;2592;48.140;7.614;2023-02-07T04:35:23;10.47;;;8.50;;
5147;SDS011;2592;48.140;7.614;2023-02-07T04:37:50;13.23;;;9.30;;
5147;SDS011;2592;48.140;7.614;2023-02-07T04:40:16;9.93;;;8.63;;
5147;SDS011;2592;48.140;7.614;2023-02-07T04:42:42;10.70;;;9.60;;
5147;SDS011;2592;48.140;7.614;2023-02-07T04:45:09;12.00;;;9.80;;
5147;SDS011;2592;48.140;7.614;2023-02-07T04:47:37;10.47;;;8.73;;
5147;SDS011;2592;48.140;7.614;2023-02-07T04:50:03;12.00;;;9.63;;
5147;SDS011;2592;48.140;7.614;2023-02-07T04:52:29;11.63;;;9.63;;
5147;SDS011;2592;48.140;7.614;2023-02-07T04:54:56;15.70;;;10.40;;
5147;SDS011;2592;48.140;7.614;2023-02-07T04:57:22;19.73;;;13.67;;
5147;SDS011;2592;48.140;7.614;2023-02-07T04:59:49;14.83;;;11.73;;
5147;SDS011;2592;48.140;7.614;2023-02-07T05:02:15;12.37;;;10.20;;
5147;SDS011;2592;48.140;7.614;2023-02-07T05:04:43;14.50;;;9.93;;
5147;SDS011;2592;48.140;7.614;2023-02-07T05:07:09;10.03;;;8.97;;
5147;SDS011;2592;48.140;7.614;2023-02-07T05:09:35;10.70;;;8.73;;
5147;SDS011;2592;48.140;7.614;2023-02-07T05:12:02;8.83;;;7.93;;
5147;SDS011;2592;48.140;7.614;2023-02-07T05:14:28;11.37;;;8.90;;
5147;SDS011;2592;48.140;7.614;2023-02-07T05:16:55;10.93;;;8.00;;
5147;SDS011;2592;48.140;7.614;2023-02-07T05:19:21;10.10;;;8.50;;
5147;SDS011;2592;48.140;7.614;2023-02-07T05:21:49;9.87;;;7.97;;
5147;SDS011;2592;48.140;7.614;2023-02-07T05:24:15;8.27;;;7.37;;
5147;SDS011;2592;48.140;7.614;2023-02-07T05:26:41;9.07;;;8.10;;
5147;SDS011;2592;48.140;7.614;2023-02-07T05:29:08;9.60;;;7.53;;
5147;SDS011;2592;48.140;7.614;2023-02-07T05:31:35;7.97;;;7.17;;
5147;SDS011;2592;48.140;7.614;2023-02-07T05:34:18;12.47;;;8.97;;
5147;SDS011;2592;48.140;7.614;2023-02-07T05:36:45;10.30;;;7.33;;
5147;SDS011;2592;48.140;7.614;2023-02-07T05:39:13;11.30;;;6.87;;
5147;SDS011;2592;48.140;7.614;2023-02-07T05:41:39;7.00;;;6.30;;
5147;SDS011;2592;48.140;7.614;2023-02-07T05:44:05;9.50;;;6.87;;
5147;SDS011;2592;48.140;7.614;2023-02-07T05:46:32;10.67;;;7.90;;
5147;SDS011;2592;48.140;7.614;2023-02-07T05:48:58;8.90;;;7.77;;
5147;SDS011;2592;48.140;7.614;2023-02-07T05:51:25;16.53;;;10.30;;
5147;SDS011;2592;48.140;7.614;2023-02-07T05:53:51;43.60;;;29.50;;
5147;SDS011;2592;48.140;7.614;2023-02-07T05:56:19;14.83;;;9.70;;
5147;SDS011;2592;48.140;7.614;2023-02-07T05:58:45;7.93;;;7.10;;
5147;SDS011;2592;48.140;7.614;2023-02-07T06:01:11;8.57;;;6.57;;
5147;SDS011;2592;48.140;7.614;2023-02-07T06:03:38;10.50;;;6.93;;
5147;SDS011;2592;48.140;7.614;2023-02-07T06:06:04;10.70;;;7.30;;
5147;SDS011;2592;48.140;7.614;2023-02-07T06:08:31;7.90;;;7.10;;
5147;SDS011;2592;48.140;7.614;2023-02-07T06:10:57;8.80;;;7.50;;
5147;SDS011;2592;48.140;7.614;2023-02-07T06:13:25;7.47;;;6.77;;
5147;SDS011;2592;48.140;7.614;2023-02-07T06:15:51;10.23;;;7.20;;
5147;SDS011;2592;48.140;7.614;2023-02-07T06:18:18;7.23;;;6.53;;
5147;SDS011;2592;48.140;7.614;2023-02-07T06:20:44;7.30;;;6.60;;
5147;SDS011;2592;48.140;7.614;2023-02-07T06:23:10;7.30;;;6.60;;
5147;SDS011;2592;48.140;7.614;2023-02-07T06:25:37;7.10;;;6.40;;
5147;SDS011;2592;48.140;7.614;2023-02-07T06:28:03;8.07;;;6.97;;
5147;SDS011;2592;48.140;7.614;2023-02-07T06:30:31;9.47;;;7.00;;
5147;SDS011;2592;48.140;7.614;2023-02-07T06:32:57;9.50;;;7.50;;
5147;SDS011;2592;48.140;7.614;2023-02-07T06:35:24;9.33;;;7.30;;
5147;SDS011;2592;48.140;7.614;2023-02-07T06:37:50;8.13;;;6.87;;
5147;SDS011;2592;48.140;7.614;2023-02-07T06:40:16;7.80;;;7.10;;
5147;SDS011;2592;48.140;7.614;2023-02-07T06:42:43;8.20;;;7.00;;
5147;SDS011;2592;48.140;7.614;2023-02-07T06:45:09;8.30;;;7.33;;
5147;SDS011;2592;48.140;7.614;2023-02-07T06:47:37;31.20;;;19.10;;
5147;SDS011;2592;48.140;7.614;2023-02-07T06:50:03;25.00;;;21.60;;
5147;SDS011;2592;48.140;7.614;2023-02-07T06:52:30;25.80;;;21.60;;
5147;SDS011;2592;48.140;7.614;2023-02-07T06:54:56;17.33;;;14.90;;
5147;SDS011;2592;48.140;7.614;2023-02-07T06:57:23;13.20;;;10.73;;
5147;SDS011;2592;48.140;7.614;2023-02-07T06:59:49;18.73;;;8.30;;
5147;SDS011;2592;48.140;7.614;2023-02-07T07:02:15;9.90;;;8.30;;
5147;SDS011;2592;48.140;7.614;2023-02-07T07:04:43;9.57;;;7.53;;
5147;SDS011;2592;48.140;7.614;2023-02-07T07:07:10;12.47;;;9.10;;
5147;SDS011;2592;48.140;7.614;2023-02-07T07:09:36;9.60;;;8.60;;
5147;SDS011;2592;48.140;7.614;2023-02-07T07:12:02;8.93;;;8.03;;
5147;SDS011;2592;48.140;7.614;2023-02-07T07:14:29;12.20;;;9.13;;
5147;SDS011;2592;48.140;7.614;2023-02-07T07:16:56;12.40;;;8.83;;
5147;SDS011;2592;48.140;7.614;2023-02-07T07:19:23;10.90;;;8.50;;
5147;SDS011;2592;48.140;7.614;2023-02-07T07:21:50;10.60;;;9.50;;
5147;SDS011;2592;48.140;7.614;2023-02-07T07:24:17;11.50;;;8.50;;
5147;SDS011;2592;48.140;7.614;2023-02-07T07:26:43;9.63;;;8.47;;
5147;SDS011;2592;48.140;7.614;2023-02-07T07:29:09;14.30;;;10.70;;
5147;SDS011;2592;48.140;7.614;2023-02-07T07:31:36;12.30;;;9.83;;
5147;SDS011;2592;48.140;7.614;2023-02-07T07:34:02;12.37;;;9.90;;
5147;SDS011;2592;48.140;7.614;2023-02-07T07:36:29;9.43;;;8.47;;
5147;SDS011;2592;48.140;7.614;2023-02-07T07:38:57;10.60;;;8.83;;
5147;SDS011;2592;48.140;7.614;2023-02-07T07:41:23;13.87;;;10.10;;
5147;SDS011;2592;48.140;7.614;2023-02-07T07:43:49;9.03;;;8.13;;
5147;SDS011;2592;48.140;7.614;2023-02-07T07:46:16;11.00;;;8.80;;
5147;SDS011;2592;48.140;7.614;2023-02-07T07:48:42;23.43;;;17.40;;
5147;SDS011;2592;48.140;7.614;2023-02-07T07:51:09;19.43;;;16.63;;
5147;SDS011;2592;48.140;7.614;2023-02-07T07:53:35;15.87;;;13.50;;
5147;SDS011;2592;48.140;7.614;2023-02-07T07:56:03;15.77;;;14.17;;
5147;SDS011;2592;48.140;7.614;2023-02-07T07:58:29;15.80;;;12.30;;
5147;SDS011;2592;48.140;7.614;2023-02-07T08:00:56;11.70;;;10.50;;
5147;SDS011;2592;48.140;7.614;2023-02-07T08:03:22;17.67;;;11.43;;
5147;SDS011;2592;48.140;7.614;2023-02-07T08:05:49;14.93;;;11.00;;
5147;SDS011;2592;48.140;7.614;2023-02-07T08:08:15;13.60;;;10.77;;
5147;SDS011;2592;48.140;7.614;2023-02-07T08:10:42;13.17;;;11.77;;
5147;SDS011;2592;48.140;7.614;2023-02-07T08:13:10;14.90;;;11.20;;
5147;SDS011;2592;48.140;7.614;2023-02-07T08:15:37;13.80;;;12.40;;
5147;SDS011;2592;48.140;7.614;2023-02-07T08:18:03;12.57;;;11.10;;
5147;SDS011;2592;48.140;7.614;2023-02-07T08:20:30;14.20;;;10.93;;
5147;SDS011;2592;48.140;7.614;2023-02-07T08:22:56;12.67;;;11.30;;
5147;SDS011;2592;48.140;7.614;2023-02-07T08:25:23;14.70;;;11.37;;
5147;SDS011;2592;48.140;7.614;2023-02-07T08:27:49;23.43;;;12.67;;
5147;SDS011;2592;48.140;7.614;2023-02-07T08:30:17;12.60;;;10.27;;
5147;SDS011;2592;48.140;7.614;2023-02-07T08:32:43;14.90;;;11.10;;
5147;SDS011;2592;48.140;7.614;2023-02-07T08:35:10;13.80;;;11.67;;
5147;SDS011;2592;48.140;7.614;2023-02-07T08:37:36;16.40;;;11.13;;
5147;SDS011;2592;48.140;7.614;2023-02-07T08:40:03;14.93;;;11.70;;
5147;SDS011;2592;48.140;7.614;2023-02-07T08:42:30;13.20;;;10.63;;
5147;SDS011;2592;48.140;7.614;2023-02-07T08:44:56;11.80;;;10.53;;
5147;SDS011;2592;48.140;7.614;2023-02-07T08:47:24;13.23;;;10.70;;
5147;SDS011;2592;48.140;7.614;2023-02-07T08:49:50;16.43;;;11.00;;
5147;SDS011;2592;48.140;7.614;2023-02-07T08:52:17;12.93;;;10.47;;
5147;SDS011;2592;48.140;7.614;2023-02-07T08:54:43;13.03;;;11.33;;
5147;SDS011;2592;48.140;7.614;2023-02-07T08:57:10;12.60;;;11.03;;
5147;SDS011;2592;48.140;7.614;2023-02-07T08:59:36;11.53;;;10.10;;
5147;SDS011;2592;48.140;7.614;2023-02-07T09:02:03;13.10;;;11.70;;
5147;SDS011;2592;48.140;7.614;2023-02-07T09:04:30;11.77;;;10.53;;
5147;SDS011;2592;48.140;7.614;2023-02-07T09:06:57;13.33;;;10.37;;
5147;SDS011;2592;48.140;7.614;2023-02-07T09:09:23;12.37;;;10.17;;
5147;SDS011;2592;48.140;7.614;2023-02-07T09:11:50;14.20;;;11.17;;
5147;SDS011;2592;48.140;7.614;2023-02-07T09:14:16;11.57;;;10.37;;
5147;SDS011;2592;48.140;7.614;2023-02-07T09:16:42;13.57;;;10.13;;
5147;SDS011;2592;48.140;7.614;2023-02-07T09:19:09;11.20;;;10.00;;
5147;SDS011;2592;48.140;7.614;2023-02-07T09:21:37;11.50;;;9.97;;
5147;SDS011;2592;48.140;7.614;2023-02-07T09:24:03;12.00;;;10.70;;
5147;SDS011;2592;48.140;7.614;2023-02-07T09:26:29;12.63;;;9.90;;
5147;SDS011;2592;48.140;7.614;2023-02-07T09:28:58;15.83;;;12.10;;
5147;SDS011;2592;48.140;7.614;2023-02-07T09:31:24;11.10;;;9.93;;
5147;SDS011;2592;48.140;7.614;2023-02-07T09:33:51;12.30;;;10.30;;
5147;SDS011;2592;48.140;7.614;2023-02-07T09:36:18;15.00;;;10.70;;
5147;SDS011;2592;48.140;7.614;2023-02-07T09:38:45;14.27;;;10.83;;
5147;SDS011;2592;48.140;7.614;2023-02-07T09:41:14;15.03;;;11.50;;
5147;SDS011;2592;48.140;7.614;2023-02-07T09:43:45;11.37;;;10.17;;
5147;SDS011;2592;48.140;7.614;2023-02-07T09:46:18;13.67;;;10.60;;
5147;SDS011;2592;48.140;7.614;2023-02-07T09:48:45;13.53;;;11.37;;
5147;SDS011;2592;48.140;7.614;2023-02-07T09:51:13;19.03;;;13.20;;
5147;SDS011;2592;48.140;7.614;2023-02-07T09:53:42;17.43;;;11.57;;
5147;SDS011;2592;48.140;7.614;2023-02-07T09:56:11;17.03;;;12.60;;
5147;SDS011;2592;48.140;7.614;2023-02-07T09:58:39;17.20;;;13.13;;
5147;SDS011;2592;48.140;7.614;2023-02-07T10:01:08;15.43;;;12.97;;
5147;SDS011;2592;48.140;7.614;2023-02-07T10:03:37;16.03;;;13.30;;
5147;SDS011;2592;48.140;7.614;2023-02-07T10:06:10;12.07;;;10.43;;
5147;SDS011;2592;48.140;7.614;2023-02-07T10:08:38;15.97;;;11.90;;
5147;SDS011;2592;48.140;7.614;2023-02-07T10:11:08;15.50;;;11.80;;
5147;SDS011;2592;48.140;7.614;2023-02-07T10:13:42;11.17;;;10.07;;
5147;SDS011;2592;48.140;7.614;2023-02-07T10:16:21;12.57;;;10.67;;
5147;SDS011;2592;48.140;7.614;2023-02-07T10:18:52;12.10;;;10.17;;
5147;SDS011;2592;48.140;7.614;2023-02-07T10:21:23;20.70;;;12.33;;
5147;SDS011;2592;48.140;7.614;2023-02-07T10:23:56;14.13;;;12.13;;
5147;SDS011;2592;48.140;7.614;2023-02-07T10:26:26;14.47;;;11.80;;
5147;SDS011;2592;48.140;7.614;2023-02-07T10:29:14;12.53;;;11.23;;
5147;SDS011;2592;48.140;7.614;2023-02-07T10:31:43;13.20;;;11.73;;
5147;SDS011;2592;48.140;7.614;2023-02-07T10:34:12;13.47;;;11.33;;
5147;SDS011;2592;48.140;7.614;2023-02-07T10:36:42;13.90;;;12.30;;
5147;SDS011;2592;48.140;7.614;2023-02-07T10:39:11;12.83;;;11.47;;
5147;SDS011;2592;48.140;7.614;2023-02-07T10:41:40;16.63;;;13.93;;
5147;SDS011;2592;48.140;7.614;2023-02-07T10:44:08;15.80;;;13.40;;
5147;SDS011;2592;48.140;7.614;2023-02-07T10:46:36;14.30;;;12.67;;
5147;SDS011;2592;48.140;7.614;2023-02-07T10:49:03;14.90;;;12.40;;
5147;SDS011;2592;48.140;7.614;2023-02-07T10:51:32;16.03;;;12.93;;
5147;SDS011;2592;48.140;7.614;2023-02-07T10:54:03;14.13;;;12.30;;
5147;SDS011;2592;48.140;7.614;2023-02-07T10:56:32;18.63;;;14.00;;
5147;SDS011;2592;48.140;7.614;2023-02-07T10:59:01;20.50;;;16.03;;
5147;SDS011;2592;48.140;7.614;2023-02-07T11:01:29;23.03;;;13.60;;
5147;SDS011;2592;48.140;7.614;2023-02-07T11:03:57;18.17;;;13.10;;
5147;SDS011;2592;48.140;7.614;2023-02-07T11:06:24;15.20;;;13.10;;
5147;SDS011;2592;48.140;7.614;2023-02-07T11:08:51;13.20;;;11.80;;
5147;SDS011;2592;48.140;7.614;2023-02-07T11:11:35;15.33;;;12.70;;
5147;SDS011;2592;48.140;7.614;2023-02-07T11:14:04;14.47;;;12.97;;
5147;SDS011;2592;48.140;7.614;2023-02-07T11:16:31;15.93;;;13.70;;
5147;SDS011;2592;48.140;7.614;2023-02-07T11:18:59;15.57;;;12.53;;
5147;SDS011;2592;48.140;7.614;2023-02-07T11:21:27;15.60;;;12.23;;
5147;SDS011;2592;48.140;7.614;2023-02-07T11:23:56;15.53;;;12.50;;
5147;SDS011;2592;48.140;7.614;2023-02-07T11:26:23;14.93;;;12.40;;
5147;SDS011;2592;48.140;7.614;2023-02-07T11:28:50;15.77;;;12.37;;
5147;SDS011;2592;48.140;7.614;2023-02-07T11:31:17;16.40;;;13.17;;
5147;SDS011;2592;48.140;7.614;2023-02-07T11:33:44;18.57;;;12.03;;
5147;SDS011;2592;48.140;7.614;2023-02-07T11:36:19;14.20;;;11.90;;
5147;SDS011;2592;48.140;7.614;2023-02-07T11:38:47;16.73;;;12.40;;
5147;SDS011;2592;48.140;7.614;2023-02-07T11:41:17;14.00;;;12.13;;
5147;SDS011;2592;48.140;7.614;2023-02-07T11:43:52;11.50;;;10.10;;
5147;SDS011;2592;48.140;7.614;2023-02-07T11:46:20;11.10;;;10.00;;
5147;SDS011;2592;48.140;7.614;2023-02-07T11:48:48;11.73;;;10.10;;
5147;SDS011;2592;48.140;7.614;2023-02-07T11:51:16;13.43;;;10.63;;
5147;SDS011;2592;48.140;7.614;2023-02-07T11:53:44;10.60;;;8.73;;
5147;SDS011;2592;48.140;7.614;2023-02-07T11:56:19;12.33;;;11.10;;
5147;SDS011;2592;48.140;7.614;2023-02-07T11:58:45;10.30;;;9.30;;
5147;SDS011;2592;48.140;7.614;2023-02-07T12:01:14;11.53;;;9.93;;
5147;SDS011;2592;48.140;7.614;2023-02-07T12:03:43;13.47;;;9.60;;
5147;SDS011;2592;48.140;7.614;2023-02-07T12:06:12;10.93;;;9.83;;
5147;SDS011;2592;48.140;7.614;2023-02-07T12:08:42;8.20;;;7.40;;
5147;SDS011;2592;48.140;7.614;2023-02-07T12:11:10;16.60;;;10.23;;
5147;SDS011;2592;48.140;7.614;2023-02-07T12:13:38;14.10;;;10.50;;
5147;SDS011;2592;48.140;7.614;2023-02-07T12:16:07;13.70;;;10.53;;
5147;SDS011;2592;48.140;7.614;2023-02-07T12:18:37;14.23;;;10.40;;
5147;SDS011;2592;48.140;7.614;2023-02-07T12:21:08;11.90;;;10.57;;
5147;SDS011;2592;48.140;7.614;2023-02-07T12:23:40;13.37;;;11.10;;
5147;SDS011;2592;48.140;7.614;2023-02-07T12:26:15;11.40;;;9.30;;
5147;SDS011;2592;48.140;7.614;2023-02-07T12:28:44;13.03;;;10.47;;
5147;SDS011;2592;48.140;7.614;2023-02-07T12:31:14;15.60;;;11.50;;
5147;SDS011;2592;48.140;7.614;2023-02-07T12:33:43;12.70;;;10.97;;
5147;SDS011;2592;48.140;7.614;2023-02-07T12:36:11;11.57;;;10.17;;
5147;SDS011;2592;48.140;7.614;2023-02-07T12:38:41;11.10;;;9.30;;
5147;SDS011;2592;48.140;7.614;2023-02-07T12:41:10;13.27;;;9.97;;
5147;SDS011;2592;48.140;7.614;2023-02-07T12:43:42;12.10;;;10.20;;
5147;SDS011;2592;48.140;7.614;2023-02-07T12:46:15;11.30;;;9.37;;
5147;SDS011;2592;48.140;7.614;2023-02-07T12:48:51;13.00;;;11.33;;
5147;SDS011;2592;48.140;7.614;2023-02-07T12:51:22;15.17;;;10.87;;
5147;SDS011;2592;48.140;7.614;2023-02-07T12:53:54;11.37;;;9.70;;
5147;SDS011;2592;48.140;7.614;2023-02-07T12:56:26;16.73;;;9.97;;
5147;SDS011;2592;48.140;7.614;2023-02-07T12:58:59;13.67;;;10.67;;
5147;SDS011;2592;48.140;7.614;2023-02-07T13:01:29;11.10;;;9.90;;
5147;SDS011;2592;48.140;7.614;2023-02-07T13:04:02;12.73;;;10.00;;
5147;SDS011;2592;48.140;7.614;2023-02-07T13:06:34;11.70;;;10.17;;
5147;SDS011;2592;48.140;7.614;2023-02-07T13:09:06;11.13;;;8.90;;
5147;SDS011;2592;48.140;7.614;2023-02-07T13:11:36;13.50;;;8.90;;
5147;SDS011;2592;48.140;7.614;2023-02-07T13:14:20;14.87;;;10.43;;
5147;SDS011;2592;48.140;7.614;2023-02-07T13:16:50;12.93;;;10.00;;
5147;SDS011;2592;48.140;7.614;2023-02-07T13:19:21;10.73;;;9.27;;
5147;SDS011;2592;48.140;7.614;2023-02-07T13:21:53;12.00;;;9.10;;
5147;SDS011;2592;48.140;7.614;2023-02-07T13:24:23;12.70;;;9.30;;
5147;SDS011;2592;48.140;7.614;2023-02-07T13:26:51;7.37;;;6.60;;
5147;SDS011;2592;48.140;7.614;2023-02-07T13:29:20;13.10;;;10.40;;
5147;SDS011;2592;48.140;7.614;2023-02-07T13:31:48;14.40;;;11.07;;
5147;SDS011;2592;48.140;7.614;2023-02-07T13:34:17;13.57;;;10.30;;
5147;SDS011;2592;48.140;7.614;2023-02-07T13:36:44;11.70;;;10.37;;
5147;SDS011;2592;48.140;7.614;2023-02-07T13:39:16;12.00;;;10.00;;
5147;SDS011;2592;48.140;7.614;2023-02-07T13:41:47;11.57;;;9.80;;
5147;SDS011;2592;48.140;7.614;2023-02-07T13:44:18;12.00;;;10.03;;
5147;SDS011;2592;48.140;7.614;2023-02-07T13:46:54;13.27;;;10.60;;
5147;SDS011;2592;48.140;7.614;2023-02-07T13:49:29;11.33;;;9.83;;
5147;SDS011;2592;48.140;7.614;2023-02-07T13:52:00;12.17;;;9.73;;
5147;SDS011;2592;48.140;7.614;2023-02-07T13:54:29;16.30;;;12.60;;
5147;SDS011;2592;48.140;7.614;2023-02-07T13:56:57;14.10;;;12.33;;
5147;SDS011;2592;48.140;7.614;2023-02-07T13:59:41;17.67;;;14.73;;
5147;SDS011;2592;48.140;7.614;2023-02-07T14:02:14;16.33;;;12.07;;
5147;SDS011;2592;48.140;7.614;2023-02-07T14:04:45;15.30;;;12.30;;
5147;SDS011;2592;48.140;7.614;2023-02-07T14:07:16;15.63;;;12.80;;
5147;SDS011;2592;48.140;7.614;2023-02-07T14:09:45;15.20;;;12.53;;
5147;SDS011;2592;48.140;7.614;2023-02-07T14:12:15;17.23;;;13.10;;
5147;SDS011;2592;48.140;7.614;2023-02-07T14:14:43;16.73;;;13.50;;
5147;SDS011;2592;48.140;7.614;2023-02-07T14:17:11;15.80;;;12.50;;
5147;SDS011;2592;48.140;7.614;2023-02-07T14:22:24;14.80;;;12.10;;
5147;SDS011;2592;48.140;7.614;2023-02-07T14:25:16;14.70;;;12.30;;
5147;SDS011;2592;48.140;7.614;2023-02-07T14:28:05;14.33;;;11.90;;
5147;SDS011;2592;48.140;7.614;2023-02-07T14:30:34;17.60;;;13.20;;
5147;SDS011;2592;48.140;7.614;2023-02-07T14:33:09;14.40;;;12.20;;
5147;SDS011;2592;48.140;7.614;2023-02-07T14:35:36;29.20;;;17.83;;
5147;SDS011;2592;48.140;7.614;2023-02-07T14:38:18;22.60;;;14.40;;
5147;SDS011;2592;48.140;7.614;2023-02-07T14:40:55;15.07;;;11.30;;
5147;SDS011;2592;48.140;7.614;2023-02-07T14:43:32;14.83;;;11.47;;
5147;SDS011;2592;48.140;7.614;2023-02-07T14:46:01;17.30;;;10.80;;
5147;SDS011;2592;48.140;7.614;2023-02-07T14:48:34;16.40;;;12.17;;
5147;SDS011;2592;48.140;7.614;2023-02-07T14:51:10;13.57;;;12.00;;
5147;SDS011;2592;48.140;7.614;2023-02-07T14:53:38;15.00;;;12.07;;
5147;SDS011;2592;48.140;7.614;2023-02-07T14:56:05;14.23;;;11.20;;
5147;SDS011;2592;48.140;7.614;2023-02-07T14:58:32;15.47;;;12.23;;
5147;SDS011;2592;48.140;7.614;2023-02-07T15:01:00;13.10;;;11.13;;
5147;SDS011;2592;48.140;7.614;2023-02-07T15:03:28;16.00;;;12.60;;
5147;SDS011;2592;48.140;7.614;2023-02-07T15:05:56;14.60;;;11.60;;
5147;SDS011;2592;48.140;7.614;2023-02-07T15:08:23;16.90;;;11.50;;
5147;SDS011;2592;48.140;7.614;2023-02-07T15:10:53;15.30;;;12.47;;
5147;SDS011;2592;48.140;7.614;2023-02-07T15:13:22;15.33;;;12.13;;
5147;SDS011;2592;48.140;7.614;2023-02-07T15:15:50;12.37;;;11.00;;